Terminal Aerodrome Forecast
Issued by NWS Buffalo, NY

Home | Current Version | Previous Version | Text Only | Print | Product List | Glossary On
Versions: 1 2 3 4 5 6 7 8 9 10 11 12 13 14 15 16 17 18 19 20 21
000
FTUS41 KBUF 282300
TAFROC
TAF
KROC 282340Z 2900/2924 24004KT P6SM SCT250
     FM290600 19004KT P6SM BKN250
     FM291000 16006KT P6SM BKN130
     FM291600 16014G22KT P6SM VCSH OVC035
     FM292000 17016G26KT 4SM -SN SCT025 OVC035
     FM292300 17015G20KT 2SM -SN OVC025=

USA.gov is the U.S. government's official web portal to all federal, state and local government web resources and services.